sensor_id;sensor_type;location;lat;lon;timestamp;P1;durP1;ratioP1;P2;durP2;ratioP2
17773;SDS011;9011;33.236;-97.118;2023-07-28T00:00:28;11.75;;;4.47;;
17773;SDS011;9011;33.236;-97.118;2023-07-28T00:02:57;13.15;;;5.28;;
17773;SDS011;9011;33.236;-97.118;2023-07-28T00:05:27;12.43;;;4.43;;
17773;SDS011;9011;33.236;-97.118;2023-07-28T00:07:56;11.50;;;4.10;;
17773;SDS011;9011;33.236;-97.118;2023-07-28T00:10:24;12.57;;;4.43;;
17773;SDS011;9011;33.236;-97.118;2023-07-28T00:12:53;13.75;;;5.35;;
17773;SDS011;9011;33.236;-97.118;2023-07-28T00:15:22;18.17;;;5.15;;
17773;SDS011;9011;33.236;-97.118;2023-07-28T00:17:50;7.53;;;3.90;;
17773;SDS011;9011;33.236;-97.118;2023-07-28T00:20:19;11.43;;;4.80;;
17773;SDS011;9011;33.236;-97.118;2023-07-28T00:22:49;10.20;;;4.38;;
17773;SDS011;9011;33.236;-97.118;2023-07-28T00:25:18;14.40;;;4.38;;
17773;SDS011;9011;33.236;-97.118;2023-07-28T00:27:47;11.77;;;4.38;;
17773;SDS011;9011;33.236;-97.118;2023-07-28T00:30:16;10.20;;;4.15;;
17773;SDS011;9011;33.236;-97.118;2023-07-28T00:32:45;13.18;;;4.43;;
17773;SDS011;9011;33.236;-97.118;2023-07-28T00:35:14;11.38;;;5.45;;
17773;SDS011;9011;33.236;-97.118;2023-07-28T00:37:43;12.43;;;4.65;;
17773;SDS011;9011;33.236;-97.118;2023-07-28T00:40:14;12.43;;;5.05;;
17773;SDS011;9011;33.236;-97.118;2023-07-28T00:42:43;8.18;;;4.10;;
17773;SDS011;9011;33.236;-97.118;2023-07-28T00:45:12;13.88;;;5.00;;
17773;SDS011;9011;33.236;-97.118;2023-07-28T00:47:41;12.93;;;4.35;;
17773;SDS011;9011;33.236;-97.118;2023-07-28T00:50:10;9.63;;;4.75;;
17773;SDS011;9011;33.236;-97.118;2023-07-28T00:52:40;13.90;;;4.65;;
17773;SDS011;9011;33.236;-97.118;2023-07-28T00:55:09;14.45;;;5.30;;
17773;SDS011;9011;33.236;-97.118;2023-07-28T00:57:39;8.13;;;4.25;;
17773;SDS011;9011;33.236;-97.118;2023-07-28T01:00:09;13.43;;;4.90;;
17773;SDS011;9011;33.236;-97.118;2023-07-28T01:02:38;10.02;;;5.07;;
17773;SDS011;9011;33.236;-97.118;2023-07-28T01:05:08;10.98;;;4.97;;
17773;SDS011;9011;33.236;-97.118;2023-07-28T01:07:37;10.88;;;5.03;;
17773;SDS011;9011;33.236;-97.118;2023-07-28T01:10:12;10.50;;;4.50;;
17773;SDS011;9011;33.236;-97.118;2023-07-28T01:12:47;12.30;;;5.32;;
17773;SDS011;9011;33.236;-97.118;2023-07-28T01:15:15;9.88;;;4.72;;
17773;SDS011;9011;33.236;-97.118;2023-07-28T01:17:44;14.65;;;4.60;;
17773;SDS011;9011;33.236;-97.118;2023-07-28T01:20:13;10.93;;;4.97;;
17773;SDS011;9011;33.236;-97.118;2023-07-28T01:22:56;11.27;;;4.97;;
17773;SDS011;9011;33.236;-97.118;2023-07-28T01:25:49;9.45;;;4.25;;
17773;SDS011;9011;33.236;-97.118;2023-07-28T01:28:24;9.20;;;4.72;;
17773;SDS011;9011;33.236;-97.118;2023-07-28T01:30:53;10.57;;;4.40;;
17773;SDS011;9011;33.236;-97.118;2023-07-28T01:33:22;11.48;;;5.00;;
17773;SDS011;9011;33.236;-97.118;2023-07-28T01:35:50;12.25;;;5.15;;
17773;SDS011;9011;33.236;-97.118;2023-07-28T01:38:19;10.55;;;4.53;;
17773;SDS011;9011;33.236;-97.118;2023-07-28T01:40:48;9.10;;;4.32;;
17773;SDS011;9011;33.236;-97.118;2023-07-28T01:43:16;8.95;;;5.03;;
17773;SDS011;9011;33.236;-97.118;2023-07-28T01:45:46;8.75;;;4.72;;
17773;SDS011;9011;33.236;-97.118;2023-07-28T01:48:15;9.82;;;4.22;;
17773;SDS011;9011;33.236;-97.118;2023-07-28T01:50:45;10.98;;;5.65;;
17773;SDS011;9011;33.236;-97.118;2023-07-28T01:53:14;9.00;;;4.85;;
17773;SDS011;9011;33.236;-97.118;2023-07-28T01:55:42;11.43;;;5.07;;
17773;SDS011;9011;33.236;-97.118;2023-07-28T01:58:15;10.68;;;4.88;;
17773;SDS011;9011;33.236;-97.118;2023-07-28T02:00:43;9.02;;;4.88;;
17773;SDS011;9011;33.236;-97.118;2023-07-28T02:06:03;12.75;;;5.57;;
17773;SDS011;9011;33.236;-97.118;2023-07-28T02:08:32;15.73;;;5.88;;
17773;SDS011;9011;33.236;-97.118;2023-07-28T02:11:01;15.98;;;5.68;;
17773;SDS011;9011;33.236;-97.118;2023-07-28T02:13:32;13.27;;;5.57;;
17773;SDS011;9011;33.236;-97.118;2023-07-28T02:16:03;11.20;;;5.30;;
17773;SDS011;9011;33.236;-97.118;2023-07-28T02:18:32;11.73;;;5.22;;
17773;SDS011;9011;33.236;-97.118;2023-07-28T02:21:01;9.05;;;5.30;;
17773;SDS011;9011;33.236;-97.118;2023-07-28T02:23:33;11.43;;;5.68;;
17773;SDS011;9011;33.236;-97.118;2023-07-28T02:26:03;10.93;;;5.13;;
17773;SDS011;9011;33.236;-97.118;2023-07-28T02:28:32;14.00;;;5.97;;
17773;SDS011;9011;33.236;-97.118;2023-07-28T02:31:05;15.10;;;5.80;;
17773;SDS011;9011;33.236;-97.118;2023-07-28T02:33:34;8.90;;;5.10;;
17773;SDS011;9011;33.236;-97.118;2023-07-28T02:36:02;14.30;;;6.30;;
17773;SDS011;9011;33.236;-97.118;2023-07-28T02:38:31;11.18;;;5.18;;
17773;SDS011;9011;33.236;-97.118;2023-07-28T02:41:00;12.77;;;5.78;;
17773;SDS011;9011;33.236;-97.118;2023-07-28T02:43:31;15.15;;;5.82;;
17773;SDS011;9011;33.236;-97.118;2023-07-28T02:46:03;9.80;;;5.57;;
17773;SDS011;9011;33.236;-97.118;2023-07-28T02:48:43;13.05;;;5.15;;
17773;SDS011;9011;33.236;-97.118;2023-07-28T02:51:15;12.25;;;5.32;;
17773;SDS011;9011;33.236;-97.118;2023-07-28T02:53:44;11.45;;;4.70;;
17773;SDS011;9011;33.236;-97.118;2023-07-28T02:56:19;11.68;;;5.18;;
17773;SDS011;9011;33.236;-97.118;2023-07-28T02:58:50;15.05;;;5.75;;
17773;SDS011;9011;33.236;-97.118;2023-07-28T03:01:20;11.70;;;5.03;;
17773;SDS011;9011;33.236;-97.118;2023-07-28T03:03:55;13.65;;;5.65;;
17773;SDS011;9011;33.236;-97.118;2023-07-28T03:06:24;17.77;;;6.05;;
17773;SDS011;9011;33.236;-97.118;2023-07-28T03:08:52;11.63;;;5.15;;
17773;SDS011;9011;33.236;-97.118;2023-07-28T03:11:21;10.32;;;5.20;;
17773;SDS011;9011;33.236;-97.118;2023-07-28T03:13:53;10.75;;;4.82;;
17773;SDS011;9011;33.236;-97.118;2023-07-28T03:16:23;13.73;;;5.82;;
17773;SDS011;9011;33.236;-97.118;2023-07-28T03:18:55;10.85;;;5.90;;
17773;SDS011;9011;33.236;-97.118;2023-07-28T03:21:23;10.32;;;5.63;;
17773;SDS011;9011;33.236;-97.118;2023-07-28T03:23:52;13.88;;;5.78;;
17773;SDS011;9011;33.236;-97.118;2023-07-28T03:26:23;9.10;;;4.72;;
17773;SDS011;9011;33.236;-97.118;2023-07-28T03:28:52;11.73;;;4.80;;
17773;SDS011;9011;33.236;-97.118;2023-07-28T03:31:23;9.07;;;5.03;;
17773;SDS011;9011;33.236;-97.118;2023-07-28T03:34:01;7.75;;;4.40;;
17773;SDS011;9011;33.236;-97.118;2023-07-28T03:36:30;11.75;;;5.30;;
17773;SDS011;9011;33.236;-97.118;2023-07-28T03:38:58;13.90;;;5.97;;
17773;SDS011;9011;33.236;-97.118;2023-07-28T03:41:32;11.10;;;4.63;;
17773;SDS011;9011;33.236;-97.118;2023-07-28T03:44:03;11.63;;;5.22;;
17773;SDS011;9011;33.236;-97.118;2023-07-28T03:46:36;17.95;;;5.50;;
17773;SDS011;9011;33.236;-97.118;2023-07-28T03:49:07;10.68;;;5.15;;
17773;SDS011;9011;33.236;-97.118;2023-07-28T03:51:39;11.63;;;5.03;;
17773;SDS011;9011;33.236;-97.118;2023-07-28T03:54:08;17.48;;;5.40;;
17773;SDS011;9011;33.236;-97.118;2023-07-28T03:56:37;16.02;;;5.72;;
17773;SDS011;9011;33.236;-97.118;2023-07-28T03:59:05;10.90;;;5.38;;
17773;SDS011;9011;33.236;-97.118;2023-07-28T04:01:35;8.75;;;4.95;;
17773;SDS011;9011;33.236;-97.118;2023-07-28T04:04:04;17.50;;;5.20;;
17773;SDS011;9011;33.236;-97.118;2023-07-28T04:06:39;11.63;;;5.28;;
17773;SDS011;9011;33.236;-97.118;2023-07-28T04:09:09;13.48;;;5.95;;
17773;SDS011;9011;33.236;-97.118;2023-07-28T04:11:43;10.10;;;4.78;;
17773;SDS011;9011;33.236;-97.118;2023-07-28T04:14:14;11.80;;;5.40;;
17773;SDS011;9011;33.236;-97.118;2023-07-28T04:16:45;11.70;;;5.03;;
17773;SDS011;9011;33.236;-97.118;2023-07-28T04:19:13;12.65;;;5.03;;
17773;SDS011;9011;33.236;-97.118;2023-07-28T04:21:47;13.25;;;5.32;;
17773;SDS011;9011;33.236;-97.118;2023-07-28T04:24:18;9.70;;;4.70;;
17773;SDS011;9011;33.236;-97.118;2023-07-28T04:26:47;15.00;;;5.03;;
17773;SDS011;9011;33.236;-97.118;2023-07-28T04:29:15;12.35;;;5.10;;
17773;SDS011;9011;33.236;-97.118;2023-07-28T04:31:46;13.07;;;5.43;;
17773;SDS011;9011;33.236;-97.118;2023-07-28T04:34:19;11.93;;;5.28;;
17773;SDS011;9011;33.236;-97.118;2023-07-28T04:36:48;14.35;;;5.45;;
17773;SDS011;9011;33.236;-97.118;2023-07-28T04:39:16;12.25;;;4.85;;
17773;SDS011;9011;33.236;-97.118;2023-07-28T04:41:45;11.02;;;5.80;;
17773;SDS011;9011;33.236;-97.118;2023-07-28T04:44:13;13.35;;;5.63;;
17773;SDS011;9011;33.236;-97.118;2023-07-28T04:46:42;10.45;;;5.10;;
17773;SDS011;9011;33.236;-97.118;2023-07-28T04:49:15;9.13;;;4.85;;
17773;SDS011;9011;33.236;-97.118;2023-07-28T04:51:44;15.13;;;5.57;;
17773;SDS011;9011;33.236;-97.118;2023-07-28T04:54:14;10.73;;;4.93;;
17773;SDS011;9011;33.236;-97.118;2023-07-28T04:56:43;12.60;;;5.15;;
17773;SDS011;9011;33.236;-97.118;2023-07-28T04:59:12;12.25;;;4.50;;
17773;SDS011;9011;33.236;-97.118;2023-07-28T05:01:41;11.48;;;4.70;;
17773;SDS011;9011;33.236;-97.118;2023-07-28T05:04:09;10.52;;;4.90;;
17773;SDS011;9011;33.236;-97.118;2023-07-28T05:06:40;11.63;;;5.10;;
17773;SDS011;9011;33.236;-97.118;2023-07-28T05:09:08;9.90;;;4.88;;
17773;SDS011;9011;33.236;-97.118;2023-07-28T05:11:37;11.82;;;4.68;;
17773;SDS011;9011;33.236;-97.118;2023-07-28T05:14:06;11.98;;;5.00;;
17773;SDS011;9011;33.236;-97.118;2023-07-28T05:16:34;14.07;;;4.90;;
17773;SDS011;9011;33.236;-97.118;2023-07-28T05:19:06;13.80;;;4.63;;
17773;SDS011;9011;33.236;-97.118;2023-07-28T05:21:34;11.55;;;5.65;;
17773;SDS011;9011;33.236;-97.118;2023-07-28T05:24:05;11.45;;;5.07;;
17773;SDS011;9011;33.236;-97.118;2023-07-28T05:26:33;10.93;;;4.68;;
17773;SDS011;9011;33.236;-97.118;2023-07-28T05:29:02;12.10;;;4.22;;
17773;SDS011;9011;33.236;-97.118;2023-07-28T05:31:31;11.82;;;4.72;;
17773;SDS011;9011;33.236;-97.118;2023-07-28T05:34:00;11.23;;;5.20;;
17773;SDS011;9011;33.236;-97.118;2023-07-28T05:36:29;12.32;;;5.65;;
17773;SDS011;9011;33.236;-97.118;2023-07-28T05:38:58;9.73;;;4.63;;
17773;SDS011;9011;33.236;-97.118;2023-07-28T05:41:29;11.27;;;4.60;;
17773;SDS011;9011;33.236;-97.118;2023-07-28T05:43:58;12.32;;;5.38;;
17773;SDS011;9011;33.236;-97.118;2023-07-28T05:46:27;10.45;;;5.25;;
17773;SDS011;9011;33.236;-97.118;2023-07-28T05:48:56;12.40;;;4.60;;
17773;SDS011;9011;33.236;-97.118;2023-07-28T05:51:25;11.10;;;4.93;;
17773;SDS011;9011;33.236;-97.118;2023-07-28T05:53:54;14.73;;;4.88;;
17773;SDS011;9011;33.236;-97.118;2023-07-28T05:56:22;10.20;;;4.97;;
17773;SDS011;9011;33.236;-97.118;2023-07-28T05:58:56;11.02;;;4.88;;
17773;SDS011;9011;33.236;-97.118;2023-07-28T06:01:25;13.68;;;5.13;;
17773;SDS011;9011;33.236;-97.118;2023-07-28T06:03:54;10.65;;;5.22;;
17773;SDS011;9011;33.236;-97.118;2023-07-28T06:06:28;10.02;;;5.38;;
17773;SDS011;9011;33.236;-97.118;2023-07-28T06:08:57;11.80;;;5.40;;
17773;SDS011;9011;33.236;-97.118;2023-07-28T06:11:26;15.02;;;5.20;;
17773;SDS011;9011;33.236;-97.118;2023-07-28T06:13:56;13.35;;;5.32;;
17773;SDS011;9011;33.236;-97.118;2023-07-28T06:16:25;11.55;;;5.63;;
17773;SDS011;9011;33.236;-97.118;2023-07-28T06:18:53;12.48;;;6.13;;
17773;SDS011;9011;33.236;-97.118;2023-07-28T06:21:22;9.88;;;5.18;;
17773;SDS011;9011;33.236;-97.118;2023-07-28T06:23:51;12.13;;;5.13;;
17773;SDS011;9011;33.236;-97.118;2023-07-28T06:26:19;10.15;;;4.88;;
17773;SDS011;9011;33.236;-97.118;2023-07-28T06:28:48;10.63;;;5.30;;
17773;SDS011;9011;33.236;-97.118;2023-07-28T06:31:19;9.95;;;5.40;;
17773;SDS011;9011;33.236;-97.118;2023-07-28T06:33:47;14.68;;;5.75;;
17773;SDS011;9011;33.236;-97.118;2023-07-28T06:36:16;8.88;;;4.93;;
17773;SDS011;9011;33.236;-97.118;2023-07-28T06:38:45;12.73;;;6.05;;
17773;SDS011;9011;33.236;-97.118;2023-07-28T06:41:15;16.38;;;5.97;;
17773;SDS011;9011;33.236;-97.118;2023-07-28T06:43:45;12.95;;;4.82;;
17773;SDS011;9011;33.236;-97.118;2023-07-28T06:46:15;9.35;;;5.07;;
17773;SDS011;9011;33.236;-97.118;2023-07-28T06:48:50;12.93;;;5.15;;
17773;SDS011;9011;33.236;-97.118;2023-07-28T06:51:19;13.52;;;5.25;;
17773;SDS011;9011;33.236;-97.118;2023-07-28T06:53:51;15.48;;;5.32;;
17773;SDS011;9011;33.236;-97.118;2023-07-28T06:56:20;13.38;;;6.32;;
17773;SDS011;9011;33.236;-97.118;2023-07-28T06:58:51;11.10;;;5.60;;
17773;SDS011;9011;33.236;-97.118;2023-07-28T07:01:22;12.63;;;6.10;;
17773;SDS011;9011;33.236;-97.118;2023-07-28T07:03:53;11.18;;;4.72;;
17773;SDS011;9011;33.236;-97.118;2023-07-28T07:06:26;10.10;;;5.32;;
17773;SDS011;9011;33.236;-97.118;2023-07-28T07:08:59;11.43;;;5.93;;
17773;SDS011;9011;33.236;-97.118;2023-07-28T07:11:29;11.57;;;5.65;;
17773;SDS011;9011;33.236;-97.118;2023-07-28T07:14:05;11.63;;;6.00;;
17773;SDS011;9011;33.236;-97.118;2023-07-28T07:16:37;13.93;;;5.90;;
17773;SDS011;9011;33.236;-97.118;2023-07-28T07:19:11;11.15;;;5.60;;
17773;SDS011;9011;33.236;-97.118;2023-07-28T07:21:41;10.00;;;4.90;;
17773;SDS011;9011;33.236;-97.118;2023-07-28T07:24:11;12.75;;;5.82;;
17773;SDS011;9011;33.236;-97.118;2023-07-28T07:26:41;10.52;;;5.57;;
17773;SDS011;9011;33.236;-97.118;2023-07-28T07:29:10;14.73;;;5.15;;
17773;SDS011;9011;33.236;-97.118;2023-07-28T07:31:39;11.30;;;5.32;;
17773;SDS011;9011;33.236;-97.118;2023-07-28T07:36:55;14.38;;;5.93;;
17773;SDS011;9011;33.236;-97.118;2023-07-28T07:39:24;12.40;;;5.70;;
17773;SDS011;9011;33.236;-97.118;2023-07-28T07:41:52;12.77;;;5.78;;
17773;SDS011;9011;33.236;-97.118;2023-07-28T07:44:22;14.60;;;5.78;;
17773;SDS011;9011;33.236;-97.118;2023-07-28T07:46:50;13.32;;;5.38;;
17773;SDS011;9011;33.236;-97.118;2023-07-28T07:49:21;12.35;;;5.97;;
17773;SDS011;9011;33.236;-97.118;2023-07-28T07:51:56;9.77;;;6.03;;
17773;SDS011;9011;33.236;-97.118;2023-07-28T07:54:25;9.80;;;5.45;;
17773;SDS011;9011;33.236;-97.118;2023-07-28T07:56:54;10.38;;;5.60;;
17773;SDS011;9011;33.236;-97.118;2023-07-28T07:59:26;12.32;;;5.63;;
17773;SDS011;9011;33.236;-97.118;2023-07-28T08:01:58;13.38;;;6.05;;
17773;SDS011;9011;33.236;-97.118;2023-07-28T08:04:31;11.57;;;6.15;;
17773;SDS011;9011;33.236;-97.118;2023-07-28T08:07:10;12.75;;;5.32;;
17773;SDS011;9011;33.236;-97.118;2023-07-28T08:09:44;14.73;;;5.32;;
17773;SDS011;9011;33.236;-97.118;2023-07-28T08:12:13;12.70;;;5.35;;
17773;SDS011;9011;33.236;-97.118;2023-07-28T08:14:44;12.70;;;5.45;;
17773;SDS011;9011;33.236;-97.118;2023-07-28T08:17:16;12.27;;;5.65;;
17773;SDS011;9011;33.236;-97.118;2023-07-28T08:19:45;10.32;;;5.50;;
17773;SDS011;9011;33.236;-97.118;2023-07-28T08:22:15;12.88;;;6.57;;
17773;SDS011;9011;33.236;-97.118;2023-07-28T08:24:45;12.48;;;5.95;;
17773;SDS011;9011;33.236;-97.118;2023-07-28T08:27:16;13.07;;;5.53;;
17773;SDS011;9011;33.236;-97.118;2023-07-28T08:29:46;12.70;;;6.32;;
17773;SDS011;9011;33.236;-97.118;2023-07-28T08:32:15;14.13;;;5.90;;
17773;SDS011;9011;33.236;-97.118;2023-07-28T08:34:50;12.68;;;5.55;;
17773;SDS011;9011;33.236;-97.118;2023-07-28T08:37:22;11.57;;;5.35;;
17773;SDS011;9011;33.236;-97.118;2023-07-28T08:39:55;13.63;;;5.90;;
17773;SDS011;9011;33.236;-97.118;2023-07-28T08:42:28;16.80;;;6.20;;
17773;SDS011;9011;33.236;-97.118;2023-07-28T08:44:59;10.93;;;5.90;;
17773;SDS011;9011;33.236;-97.118;2023-07-28T08:47:33;14.60;;;5.70;;
17773;SDS011;9011;33.236;-97.118;2023-07-28T08:50:02;14.30;;;5.53;;
17773;SDS011;9011;33.236;-97.118;2023-07-28T08:52:34;12.85;;;6.15;;
17773;SDS011;9011;33.236;-97.118;2023-07-28T08:55:04;12.27;;;5.28;;
17773;SDS011;9011;33.236;-97.118;2023-07-28T08:57:35;16.60;;;6.05;;
17773;SDS011;9011;33.236;-97.118;2023-07-28T09:00:07;15.20;;;5.97;;
17773;SDS011;9011;33.236;-97.118;2023-07-28T09:02:40;13.50;;;5.97;;
17773;SDS011;9011;33.236;-97.118;2023-07-28T09:05:16;17.75;;;5.07;;
17773;SDS011;9011;33.236;-97.118;2023-07-28T09:07:51;11.65;;;5.97;;
17773;SDS011;9011;33.236;-97.118;2023-07-28T09:10:22;17.35;;;5.82;;
17773;SDS011;9011;33.236;-97.118;2023-07-28T09:12:55;11.52;;;5.70;;
17773;SDS011;9011;33.236;-97.118;2023-07-28T09:15:32;19.25;;;5.70;;
17773;SDS011;9011;33.236;-97.118;2023-07-28T09:18:10;11.68;;;5.30;;
17773;SDS011;9011;33.236;-97.118;2023-07-28T09:20:43;16.00;;;5.90;;
17773;SDS011;9011;33.236;-97.118;2023-07-28T09:23:26;13.07;;;5.68;;
17773;SDS011;9011;33.236;-97.118;2023-07-28T09:26:00;15.18;;;5.72;;
17773;SDS011;9011;33.236;-97.118;2023-07-28T09:28:37;12.98;;;5.93;;
17773;SDS011;9011;33.236;-97.118;2023-07-28T09:31:08;15.10;;;6.13;;
17773;SDS011;9011;33.236;-97.118;2023-07-28T09:33:39;13.45;;;5.10;;
17773;SDS011;9011;33.236;-97.118;2023-07-28T09:36:13;14.60;;;5.18;;
17773;SDS011;9011;33.236;-97.118;2023-07-28T09:38:54;17.63;;;5.72;;
17773;SDS011;9011;33.236;-97.118;2023-07-28T09:41:32;9.30;;;4.40;;
17773;SDS011;9011;33.236;-97.118;2023-07-28T09:44:04;14.90;;;5.47;;
17773;SDS011;9011;33.236;-97.118;2023-07-28T09:46:33;12.30;;;4.72;;
17773;SDS011;9011;33.236;-97.118;2023-07-28T09:49:05;17.40;;;5.30;;
17773;SDS011;9011;33.236;-97.118;2023-07-28T09:51:40;15.75;;;5.00;;
17773;SDS011;9011;33.236;-97.118;2023-07-28T09:54:16;14.57;;;5.80;;
17773;SDS011;9011;33.236;-97.118;2023-07-28T09:56:53;12.80;;;5.10;;
17773;SDS011;9011;33.236;-97.118;2023-07-28T09:59:28;15.43;;;5.65;;
17773;SDS011;9011;33.236;-97.118;2023-07-28T10:02:10;14.25;;;5.38;;
17773;SDS011;9011;33.236;-97.118;2023-07-28T10:04:42;16.13;;;5.22;;
17773;SDS011;9011;33.236;-97.118;2023-07-28T10:07:13;15.13;;;5.97;;
17773;SDS011;9011;33.236;-97.118;2023-07-28T10:09:50;16.42;;;5.20;;
17773;SDS011;9011;33.236;-97.118;2023-07-28T10:12:23;12.13;;;5.07;;
17773;SDS011;9011;33.236;-97.118;2023-07-28T10:14:59;15.85;;;6.03;;
17773;SDS011;9011;33.236;-97.118;2023-07-28T10:17:32;15.30;;;5.90;;
17773;SDS011;9011;33.236;-97.118;2023-07-28T10:20:02;13.90;;;5.95;;
17773;SDS011;9011;33.236;-97.118;2023-07-28T10:22:42;16.42;;;7.43;;
17773;SDS011;9011;33.236;-97.118;2023-07-28T10:25:16;17.73;;;7.85;;
17773;SDS011;9011;33.236;-97.118;2023-07-28T10:28:05;20.38;;;9.30;;
17773;SDS011;9011;33.236;-97.118;2023-07-28T10:30:35;16.38;;;9.38;;
17773;SDS011;9011;33.236;-97.118;2023-07-28T10:33:26;17.88;;;8.43;;
17773;SDS011;9011;33.236;-97.118;2023-07-28T10:36:10;23.63;;;9.23;;
17773;SDS011;9011;33.236;-97.118;2023-07-28T10:38:40;19.27;;;7.65;;
17773;SDS011;9011;33.236;-97.118;2023-07-28T10:41:19;19.27;;;6.70;;
17773;SDS011;9011;33.236;-97.118;2023-07-28T10:43:48;22.90;;;7.75;;
17773;SDS011;9011;33.236;-97.118;2023-07-28T10:46:19;19.65;;;6.72;;
17773;SDS011;9011;33.236;-97.118;2023-07-28T10:48:54;20.05;;;6.45;;
17773;SDS011;9011;33.236;-97.118;2023-07-28T10:51:37;20.35;;;6.53;;
17773;SDS011;9011;33.236;-97.118;2023-07-28T10:54:08;17.17;;;6.20;;
17773;SDS011;9011;33.236;-97.118;2023-07-28T10:56:43;19.50;;;7.68;;
17773;SDS011;9011;33.236;-97.118;2023-07-28T10:59:13;18.45;;;7.45;;
17773;SDS011;9011;33.236;-97.118;2023-07-28T11:01:43;19.90;;;8.10;;
17773;SDS011;9011;33.236;-97.118;2023-07-28T11:04:14;22.05;;;8.75;;
17773;SDS011;9011;33.236;-97.118;2023-07-28T11:06:45;18.02;;;8.95;;
17773;SDS011;9011;33.236;-97.118;2023-07-28T11:09:16;20.73;;;10.85;;
17773;SDS011;9011;33.236;-97.118;2023-07-28T11:11:47;24.38;;;10.10;;
17773;SDS011;9011;33.236;-97.118;2023-07-28T11:14:17;21.63;;;10.95;;
17773;SDS011;9011;33.236;-97.118;2023-07-28T11:16:46;25.58;;;10.27;;
17773;SDS011;9011;33.236;-97.118;2023-07-28T11:19:18;16.45;;;9.55;;
17773;SDS011;9011;33.236;-97.118;2023-07-28T11:21:50;16.75;;;8.00;;
17773;SDS011;9011;33.236;-97.118;2023-07-28T11:24:21;17.30;;;7.00;;
17773;SDS011;9011;33.236;-97.118;2023-07-28T11:26:57;16.98;;;6.80;;
17773;SDS011;9011;33.236;-97.118;2023-07-28T11:29:30;23.98;;;6.85;;
17773;SDS011;9011;33.236;-97.118;2023-07-28T11:32:00;21.40;;;6.82;;
17773;SDS011;9011;33.236;-97.118;2023-07-28T11:34:39;17.10;;;5.75;;
17773;SDS011;9011;33.236;-97.118;2023-07-28T11:37:11;15.70;;;5.75;;
17773;SDS011;9011;33.236;-97.118;2023-07-28T11:39:40;20.27;;;6.28;;
17773;SDS011;9011;33.236;-97.118;2023-07-28T11:42:14;16.23;;;6.03;;
17773;SDS011;9011;33.236;-97.118;2023-07-28T11:44:51;15.38;;;6.25;;
17773;SDS011;9011;33.236;-97.118;2023-07-28T11:47:24;20.13;;;6.85;;
17773;SDS011;9011;33.236;-97.118;2023-07-28T11:49:56;16.70;;;6.03;;
17773;SDS011;9011;33.236;-97.118;2023-07-28T11:52:31;17.25;;;7.28;;
17773;SDS011;9011;33.236;-97.118;2023-07-28T11:55:04;19.30;;;6.60;;
17773;SDS011;9011;33.236;-97.118;2023-07-28T11:57:39;26.27;;;8.90;;
17773;SDS011;9011;33.236;-97.118;2023-07-28T12:00:18;20.48;;;7.30;;
17773;SDS011;9011;33.236;-97.118;2023-07-28T12:03:29;18.30;;;7.93;;
17773;SDS011;9011;33.236;-97.118;2023-07-28T12:06:03;17.63;;;7.70;;
17773;SDS011;9011;33.236;-97.118;2023-07-28T12:08:35;20.83;;;7.90;;
17773;SDS011;9011;33.236;-97.118;2023-07-28T12:11:05;17.20;;;7.53;;
17773;SDS011;9011;33.236;-97.118;2023-07-28T12:13:51;18.73;;;7.57;;
17773;SDS011;9011;33.236;-97.118;2023-07-28T12:16:39;18.65;;;8.20;;
17773;SDS011;9011;33.236;-97.118;2023-07-28T12:19:20;18.45;;;7.50;;
17773;SDS011;9011;33.236;-97.118;2023-07-28T12:21:50;18.02;;;8.43;;
17773;SDS011;9011;33.236;-97.118;2023-07-28T12:24:19;15.18;;;7.68;;
17773;SDS011;9011;33.236;-97.118;2023-07-28T12:26:48;19.17;;;8.73;;
17773;SDS011;9011;33.236;-97.118;2023-07-28T12:29:21;17.27;;;8.20;;
17773;SDS011;9011;33.236;-97.118;2023-07-28T12:32:04;21.52;;;9.20;;
17773;SDS011;9011;33.236;-97.118;2023-07-28T12:34:36;24.25;;;9.00;;
17773;SDS011;9011;33.236;-97.118;2023-07-28T12:37:07;20.45;;;9.68;;
17773;SDS011;9011;33.236;-97.118;2023-07-28T12:39:37;22.77;;;10.07;;
17773;SDS011;9011;33.236;-97.118;2023-07-28T12:42:10;25.33;;;10.15;;
17773;SDS011;9011;33.236;-97.118;2023-07-28T12:45:00;23.40;;;9.15;;
17773;SDS011;9011;33.236;-97.118;2023-07-28T12:47:32;18.55;;;8.38;;
17773;SDS011;9011;33.236;-97.118;2023-07-28T12:50:02;23.80;;;8.57;;
17773;SDS011;9011;33.236;-97.118;2023-07-28T12:52:39;22.75;;;9.23;;
17773;SDS011;9011;33.236;-97.118;2023-07-28T12:55:08;27.38;;;9.57;;
17773;SDS011;9011;33.236;-97.118;2023-07-28T12:57:38;25.08;;;8.90;;
17773;SDS011;9011;33.236;-97.118;2023-07-28T13:00:20;21.27;;;9.20;;
17773;SDS011;9011;33.236;-97.118;2023-07-28T13:02:51;18.42;;;8.63;;
17773;SDS011;9011;33.236;-97.118;2023-07-28T13:05:23;23.35;;;8.98;;
17773;SDS011;9011;33.236;-97.118;2023-07-28T13:08:09;24.60;;;9.10;;
17773;SDS011;9011;33.236;-97.118;2023-07-28T13:10:42;17.13;;;7.47;;
17773;SDS011;9011;33.236;-97.118;2023-07-28T13:13:16;21.83;;;7.10;;
17773;SDS011;9011;33.236;-97.118;2023-07-28T13:15:55;17.02;;;7.28;;
17773;SDS011;9011;33.236;-97.118;2023-07-28T13:18:30;22.02;;;7.72;;
17773;SDS011;9011;33.236;-97.118;2023-07-28T13:20:59;18.38;;;7.18;;
17773;SDS011;9011;33.236;-97.118;2023-07-28T13:23:28;20.65;;;7.25;;
17773;SDS011;9011;33.236;-97.118;2023-07-28T13:25:57;25.63;;;7.68;;
17773;SDS011;9011;33.236;-97.118;2023-07-28T13:28:25;22.67;;;7.65;;
17773;SDS011;9011;33.236;-97.118;2023-07-28T13:30:57;21.60;;;8.18;;
17773;SDS011;9011;33.236;-97.118;2023-07-28T13:33:27;20.60;;;6.57;;
17773;SDS011;9011;33.236;-97.118;2023-07-28T13:35:56;19.92;;;6.15;;
17773;SDS011;9011;33.236;-97.118;2023-07-28T13:38:33;21.02;;;6.57;;
17773;SDS011;9011;33.236;-97.118;2023-07-28T13:41:03;20.38;;;5.75;;
17773;SDS011;9011;33.236;-97.118;2023-07-28T13:43:33;15.93;;;5.57;;
17773;SDS011;9011;33.236;-97.118;2023-07-28T13:46:04;21.15;;;6.82;;
17773;SDS011;9011;33.236;-97.118;2023-07-28T13:48:34;25.40;;;6.30;;
17773;SDS011;9011;33.236;-97.118;2023-07-28T13:51:05;23.38;;;5.70;;
17773;SDS011;9011;33.236;-97.118;2023-07-28T13:53:34;20.52;;;5.93;;
17773;SDS011;9011;33.236;-97.118;2023-07-28T13:56:02;23.38;;;5.82;;
17773;SDS011;9011;33.236;-97.118;2023-07-28T13:58:31;18.38;;;6.10;;
17773;SDS011;9011;33.236;-97.118;2023-07-28T14:01:00;16.98;;;5.28;;
17773;SDS011;9011;33.236;-97.118;2023-07-28T14:03:30;21.08;;;5.38;;
17773;SDS011;9011;33.236;-97.118;2023-07-28T14:05:59;18.75;;;5.20;;
17773;SDS011;9011;33.236;-97.118;2023-07-28T14:08:27;26.20;;;5.72;;
17773;SDS011;9011;33.236;-97.118;2023-07-28T14:10:56;17.95;;;5.85;;
17773;SDS011;9011;33.236;-97.118;2023-07-28T14:13:25;21.50;;;5.72;;
17773;SDS011;9011;33.236;-97.118;2023-07-28T14:15:54;19.20;;;5.72;;
17773;SDS011;9011;33.236;-97.118;2023-07-28T14:18:23;18.52;;;5.63;;
17773;SDS011;9011;33.236;-97.118;2023-07-28T14:20:53;17.80;;;5.35;;
17773;SDS011;9011;33.236;-97.118;2023-07-28T14:23:23;20.02;;;5.35;;
17773;SDS011;9011;33.236;-97.118;2023-07-28T14:25:55;17.52;;;5.30;;
17773;SDS011;9011;33.236;-97.118;2023-07-28T14:28:24;18.75;;;5.38;;
17773;SDS011;9011;33.236;-97.118;2023-07-28T14:30:53;23.55;;;5.50;;
17773;SDS011;9011;33.236;-97.118;2023-07-28T14:33:21;27.23;;;6.30;;
17773;SDS011;9011;33.236;-97.118;2023-07-28T14:35:50;19.63;;;6.35;;
17773;SDS011;9011;33.236;-97.118;2023-07-28T14:38:20;15.23;;;5.10;;
17773;SDS011;9011;33.236;-97.118;2023-07-28T14:40:49;18.83;;;5.43;;
17773;SDS011;9011;33.236;-97.118;2023-07-28T14:43:18;19.83;;;6.25;;
17773;SDS011;9011;33.236;-97.118;2023-07-28T14:45:47;23.67;;;6.03;;
17773;SDS011;9011;33.236;-97.118;2023-07-28T14:48:17;18.33;;;6.13;;
17773;SDS011;9011;33.236;-97.118;2023-07-28T14:50:45;20.48;;;5.32;;
17773;SDS011;9011;33.236;-97.118;2023-07-28T14:53:32;16.92;;;5.90;;